SBKP/CPQ METAR and TAF weather

Enter ICAO airport designator
Station Type Date Time Source
SBKP METAR 2022/06/30 14:00 UTC NOAA

SBKP 301400Z 30006KT 260V340 9999 FEW035 22/11 Q1021


Station Type Date Time Source
SBKP Decoded METAR 2022/06/30 14:00 UTC NOAA

Campinas Aeroporto , Brazil (SBKP) 23-00S 047-08W 661M
Jun 30, 2022 - 10:00 AM EDT / 2022.06.30 1400 UTC
Wind: from the WNW (300 degrees) at 7 MPH (6 KT) (direction variable):0
Visibility: greater than 7 mile(s):0
Sky conditions: mostly clear
Temperature: 71 F (22 C)
Dew Point: 51 F (11 C)
Relative Humidity: 49%
Pressure (altimeter): 30.15 in. Hg (1021 hPa)
ob: SBKP 301400Z 30006KT 260V340 9999 FEW035 22/11 Q1021
cycle: 14

Station Type Date Time Source
SBKP TAF 2022/06/30 12:03 UTC NOAA

TAF SBKP 300800Z 3012/0112 02007KT CAVOK TX25/3018Z TN12/0109Z
BECMG 3013/3015 33010KT
BECMG 3019/3021 12010KT
RMK PGF

Example: see airport list